Time;durP1;ratioP1;P1;durP2;ratioP2;P2;SDS_P1;SDS_P2;PMS_P1;PMS_P2;Temp;Humidity;BMP_temperature;BMP_pressure;BME280_temperature;BME280_humidity;BME280_pressure;Samples;Min_cycle;Max_cycle;Signal;HPM_P1;HPM_P2
2024/01/10 00:04:20;;;;;;;;;;;-6.00;99.90;;;;;;6732253;88;20118;-74
2024/01/10 00:14:21;;;;;;;;;;;-6.10;99.90;;;;;;6730202;88;20083;-74
2024/01/10 00:24:21;;;;;;;;;;;-6.00;99.90;;;;;;6727907;88;20054;-74
2024/01/10 00:34:22;;;;;;;;;;;-6.10;99.90;;;;;;6728428;88;20080;-74
2024/01/10 00:44:22;;;;;;;;;;;-6.30;99.90;;;;;;6731393;88;20084;-74
2024/01/10 00:54:23;;;;;;;;;;;-6.40;99.90;;;;;;6731215;88;20533;-75
2024/01/10 01:04:23;;;;;;;;;;;-6.30;99.90;;;;;;6731325;88;20519;-75
2024/01/10 01:14:24;;;;;;;;;;;-6.30;99.90;;;;;;6728672;88;20106;-74
2024/01/10 01:24:24;;;;;;;;;;;-6.30;99.90;;;;;;6729809;88;20663;-74
2024/01/10 01:34:24;;;;;;;;;;;-6.40;99.90;;;;;;6726322;88;20108;-74
2024/01/10 01:44:25;;;;;;;;;;;-6.60;99.90;;;;;;6723415;88;20098;-74
2024/01/10 01:54:26;;;;;;;;;;;-6.50;99.90;;;;;;6731997;88;20815;-75
2024/01/10 02:04:26;;;;;;;;;;;-6.40;99.90;;;;;;6730572;88;20137;-74
2024/01/10 02:14:27;;;;;;;;;;;-6.40;99.90;;;;;;6724215;88;20073;-75
2024/01/10 02:24:28;;;;;;;;;;;-6.40;99.90;;;;;;6728080;88;20095;-75
2024/01/10 02:34:29;;;;;;;;;;;-6.30;99.90;;;;;;6725800;88;20071;-74
2024/01/10 02:44:30;;;;;;;;;;;-6.30;99.90;;;;;;6725384;88;20091;-75
2024/01/10 02:54:30;;;;;;;;;;;-6.20;99.90;;;;;;6729569;88;20639;-75
2024/01/10 03:04:30;;;;;;;;;;;-6.50;99.90;;;;;;6725942;88;20114;-76
2024/01/10 03:14:32;;;;;;;;;;;-6.50;99.90;;;;;;6728943;88;20119;-76
2024/01/10 03:24:33;;;;;;;;;;;-6.50;99.90;;;;;;6729082;88;20568;-75
2024/01/10 03:34:33;;;;;;;;;;;-6.60;99.90;;;;;;6725313;88;20087;-74
2024/01/10 03:44:33;;;;;;;;;;;-6.70;99.90;;;;;;6724875;88;20099;-75
2024/01/10 04:04:43;;;;;;;;;;;-6.80;99.90;;;;;;6739004;88;20078;-75
2024/01/10 04:14:44;;;;;;;;;;;-6.80;99.90;;;;;;6738867;88;20119;-74
2024/01/10 04:24:44;;;;;;;;;;;-6.60;99.90;;;;;;6738039;88;20213;-76
2024/01/10 04:34:45;;;;;;;;;;;-6.80;99.90;;;;;;6735836;88;20054;-77
2024/01/10 04:44:45;;;;;;;;;;;-6.70;99.90;;;;;;6737818;88;20096;-76
2024/01/10 04:54:45;;;;;;;;;;;-6.60;99.90;;;;;;6737292;88;20050;-75
2024/01/10 05:04:46;;;;;;;;;;;-6.60;99.90;;;;;;6736677;88;20091;-75
2024/01/10 05:14:46;;;;;;;;;;;-6.70;99.90;;;;;;6736868;88;20079;-75
2024/01/10 05:24:47;;;;;;;;;;;-6.70;99.90;;;;;;6736400;88;20119;-75
2024/01/10 05:34:48;;;;;;;;;;;-6.70;99.90;;;;;;6736380;88;20068;-74
2024/01/10 05:44:48;;;;;;;;;;;-6.60;99.90;;;;;;6735656;88;20069;-79
2024/01/10 05:54:48;;;;;;;;;;;-6.70;99.90;;;;;;6734640;88;20054;-78
2024/01/10 06:04:49;;;;;;;;;;;-6.70;99.90;;;;;;6738145;88;20210;-78
2024/01/10 06:14:49;;;;;;;;;;;-6.60;99.90;;;;;;6739450;88;20060;-78
2024/01/10 06:24:50;;;;;;;;;;;-6.40;99.90;;;;;;6734909;88;20095;-77
2024/01/10 06:34:50;;;;;;;;;;;-6.40;99.90;;;;;;6757300;88;20050;-75
2024/01/10 06:44:51;;;;;;;;;;;-6.40;99.90;;;;;;6736308;88;20063;-76
2024/01/10 06:54:51;;;;;;;;;;;-6.40;99.90;;;;;;6735748;88;20067;-75
2024/01/10 07:04:52;;;;;;;;;;;-6.40;99.90;;;;;;6736857;88;20570;-74
2024/01/10 07:14:52;;;;;;;;;;;-6.40;99.90;;;;;;6736756;88;20053;-75
2024/01/10 07:24:52;;;;;;;;;;;-6.60;99.90;;;;;;6738055;88;20108;-75
2024/01/10 07:34:53;;;;;;;;;;;-6.50;99.90;;;;;;6737537;88;20067;-75
2024/01/10 07:44:53;;;;;;;;;;;-6.60;99.90;;;;;;6737726;88;20078;-75
2024/01/10 07:54:54;;;;;;;;;;;-6.50;99.90;;;;;;6737368;88;20103;-76
2024/01/10 08:04:54;;;;;;;;;;;-6.60;99.90;;;;;;6736497;88;20097;-75
2024/01/10 08:14:54;;;;;;;;;;;-6.40;99.90;;;;;;6737447;88;20095;-76
2024/01/10 08:24:55;;;;;;;;;;;-6.40;99.90;;;;;;6738890;88;20058;-76
2024/01/10 08:34:56;;;;;;;;;;;-6.40;99.90;;;;;;6738173;88;20061;-76
2024/01/10 08:44:56;;;;;;;;;;;-6.30;99.90;;;;;;6737865;88;20057;-76
2024/01/10 08:54:57;;;;;;;;;;;-5.60;99.90;;;;;;6736802;88;20502;-75
2024/01/10 09:04:57;;;;;;;;;;;-5.30;99.90;;;;;;6738610;88;20069;-76
2024/01/10 09:14:58;;;;;;;;;;;-4.80;99.90;;;;;;6734517;88;20608;-75
2024/01/10 09:25:03;;;;;;;;;;;-4.60;99.90;;;;;;6744591;88;20091;-76
2024/01/10 09:35:04;;;;;;;;;;;-4.40;99.90;;;;;;6738427;88;20615;-81
2024/01/10 09:45:05;;;;;;;;;;;-4.20;99.90;;;;;;6738077;88;20065;-76
2024/01/10 09:55:06;;;;;;;;;;;-4.00;99.90;;;;;;6738569;88;20317;-76
2024/01/10 10:05:17;;;;;;;;;;;-3.80;99.90;;;;;;6733569;88;20065;-76
2024/01/10 10:15:26;;;;;;;;;;;-3.50;99.90;;;;;;6720207;88;20050;-76
2024/01/10 10:25:28;;;;;;;;;;;-3.30;99.90;;;;;;6719829;88;20864;-76
2024/01/10 10:35:29;;;;;;;;;;;-3.40;99.90;;;;;;6719505;88;20062;-75
2024/01/10 10:45:31;;;;;;;;;;;-3.20;99.90;;;;;;6718289;88;20138;-78
2024/01/10 10:55:32;;;;;;;;;;;-3.00;99.90;;;;;;6725678;88;20058;-77
2024/01/10 11:05:34;;;;;;;;;;;-3.00;99.90;;;;;;6723351;88;20573;-75
2024/01/10 11:15:38;;;;;;;;;;;-2.80;99.90;;;;;;6720126;88;20078;-76
2024/01/10 11:25:39;;;;;;;;;;;-2.60;99.90;;;;;;6718944;88;20064;-75
2024/01/10 11:35:39;;;;;;;;;;;-2.00;99.90;;;;;;6718866;88;20647;-76
2024/01/10 11:45:54;;;;;;;;;;;-1.50;99.90;;;;;;6719041;88;20054;-76
2024/01/10 11:55:55;;;;;;;;;;;-1.50;99.90;;;;;;6718302;88;20058;-77
2024/01/10 12:05:55;;;;;;;;;;;-1.20;99.90;;;;;;6718638;88;20073;-76
2024/01/10 12:15:56;;;;;;;;;;;-1.10;99.90;;;;;;6720239;88;20480;-76
2024/01/10 12:25:56;;;;;;;;;;;-1.50;99.90;;;;;;6722660;88;20058;-76
2024/01/10 12:36:10;;;;;;;;;;;-1.30;99.90;;;;;;6726566;88;20177;-76
2024/01/10 12:46:11;;;;;;;;;;;-1.20;99.90;;;;;;6722799;88;20067;-76
2024/01/10 12:56:13;;;;;;;;;;;-0.70;99.90;;;;;;6720391;88;20170;-76
2024/01/10 13:06:14;;;;;;;;;;;-0.70;99.90;;;;;;6720403;88;20122;-76
2024/01/10 13:16:14;;;;;;;;;;;-0.30;99.90;;;;;;6719140;88;20793;-76
2024/01/10 13:26:15;;;;;;;;;;;-0.60;99.90;;;;;;6720111;88;20106;-77
2024/01/10 13:36:15;;;;;;;;;;;-0.30;99.90;;;;;;6719560;88;20083;-76
2024/01/10 13:46:16;;;;;;;;;;;-0.40;99.90;;;;;;6720990;88;20062;-77
2024/01/10 13:56:17;;;;;;;;;;;-0.60;99.90;;;;;;6720124;88;20066;-75
2024/01/10 14:06:17;;;;;;;;;;;0.10;99.90;;;;;;6719394;88;20047;-76
2024/01/10 14:16:18;;;;;;;;;;;1.70;99.90;;;;;;6719594;88;20136;-78
2024/01/10 14:26:18;;;;;;;;;;;2.50;99.90;;;;;;6720196;88;20147;-78
2024/01/10 14:36:19;;;;;;;;;;;2.50;98.90;;;;;;6721139;88;20057;-78
2024/01/10 14:46:19;;;;;;;;;;;3.00;98.80;;;;;;6721504;88;20164;-78
2024/01/10 14:56:20;;;;;;;;;;;3.00;97.60;;;;;;6720378;88;20093;-77
2024/01/10 15:06:21;;;;;;;;;;;1.90;97.90;;;;;;6718658;88;20062;-77
2024/01/10 15:16:22;;;;;;;;;;;1.60;97.90;;;;;;6725537;88;20054;-78
2024/01/10 15:26:23;;;;;;;;;;;1.10;98.60;;;;;;6722505;88;20082;-78
2024/01/10 15:36:24;;;;;;;;;;;0.70;99.10;;;;;;6725648;88;20070;-77
2024/01/10 15:46:24;;;;;;;;;;;0.40;99.90;;;;;;6730933;88;20590;-77
2024/01/10 15:56:25;;;;;;;;;;;0.00;99.90;;;;;;6725966;88;20097;-77
2024/01/10 16:06:26;;;;;;;;;;;-0.10;99.90;;;;;;6735460;88;20068;-76
2024/01/10 16:16:26;;;;;;;;;;;-0.30;99.90;;;;;;6737477;88;20071;-77
2024/01/10 16:26:27;;;;;;;;;;;-0.40;99.90;;;;;;6738851;88;20490;-77
2024/01/10 16:36:27;;;;;;;;;;;-0.50;99.90;;;;;;6724830;88;20055;-77
2024/01/10 16:46:28;;;;;;;;;;;-0.70;99.90;;;;;;6721939;88;20074;-79
2024/01/10 16:56:29;;;;;;;;;;;-0.80;99.90;;;;;;6730134;88;20123;-78
2024/01/10 17:06:29;;;;;;;;;;;-0.90;99.90;;;;;;6725914;88;20935;-79
2024/01/10 17:16:32;;;;;;;;;;;-1.30;99.90;;;;;;6726713;88;20144;-78
2024/01/10 17:26:33;;;;;;;;;;;-1.50;99.90;;;;;;6725455;88;20074;-77
2024/01/10 17:36:35;;;;;;;;;;;-1.50;99.90;;;;;;6729089;88;20577;-77
2024/01/10 17:46:36;;;;;;;;;;;-1.80;99.90;;;;;;6728009;88;20081;-77
2024/01/10 17:56:38;;;;;;;;;;;-2.00;99.90;;;;;;6726103;87;20783;-79
2024/01/10 18:06:38;;;;;;;;;;;-2.10;99.90;;;;;;6734694;88;20147;-78
2024/01/10 18:16:38;;;;;;;;;;;-2.20;99.90;;;;;;6740051;88;20880;-79
2024/01/10 18:26:41;;;;;;;;;;;-2.00;99.90;;;;;;6721701;88;20161;-78
2024/01/10 18:36:42;;;;;;;;;;;-2.20;99.90;;;;;;6719758;88;20098;-77
2024/01/10 18:46:43;;;;;;;;;;;-2.40;99.90;;;;;;6719802;88;20066;-76
2024/01/10 18:56:43;;;;;;;;;;;-2.50;99.90;;;;;;6735451;87;20074;-77
2024/01/10 19:06:45;;;;;;;;;;;-2.70;99.90;;;;;;6742216;88;20107;-77
2024/01/10 19:16:48;;;;;;;;;;;-2.70;99.90;;;;;;6734241;88;20210;-76
2024/01/10 19:26:48;;;;;;;;;;;-2.70;99.90;;;;;;6736355;88;20222;-78
2024/01/10 19:36:49;;;;;;;;;;;-3.00;99.90;;;;;;6746586;88;20086;-80
2024/01/10 19:46:49;;;;;;;;;;;-3.00;99.90;;;;;;6745703;88;20886;-80
2024/01/10 19:56:50;;;;;;;;;;;-3.30;99.90;;;;;;6736375;87;20140;-79
2024/01/10 20:06:50;;;;;;;;;;;-3.40;99.90;;;;;;6733536;88;20127;-78
2024/01/10 20:16:51;;;;;;;;;;;-3.50;99.90;;;;;;6735830;88;20065;-78
2024/01/10 20:26:51;;;;;;;;;;;-3.50;99.90;;;;;;6737874;88;20078;-79
2024/01/10 20:36:52;;;;;;;;;;;-3.50;99.90;;;;;;6743122;88;20061;-79
2024/01/10 20:46:52;;;;;;;;;;;-3.50;99.90;;;;;;6740575;88;20076;-79
2024/01/10 20:56:52;;;;;;;;;;;-3.60;99.90;;;;;;6739540;87;20801;-78
2024/01/10 21:06:58;;;;;;;;;;;-3.60;99.90;;;;;;6737395;88;20062;-77
2024/01/10 21:16:59;;;;;;;;;;;-3.60;99.90;;;;;;6736345;88;20067;-79
2024/01/10 21:27:00;;;;;;;;;;;-3.80;99.90;;;;;;6736170;88;20485;-78
2024/01/10 21:37:00;;;;;;;;;;;-4.00;99.90;;;;;;6742784;88;20076;-78
2024/01/10 21:47:02;;;;;;;;;;;-4.10;99.90;;;;;;6735715;88;20137;-78
2024/01/10 21:57:03;;;;;;;;;;;-4.30;99.90;;;;;;6727465;88;20071;-78
2024/01/10 22:07:03;;;;;;;;;;;-4.30;99.90;;;;;;6728651;88;20090;-79
2024/01/10 22:17:05;;;;;;;;;;;-4.30;99.90;;;;;;6732875;88;20072;-78
2024/01/10 22:27:06;;;;;;;;;;;-4.40;99.90;;;;;;6727814;88;21060;-77
2024/01/10 22:37:06;;;;;;;;;;;-4.60;99.90;;;;;;6726773;88;20074;-78
2024/01/10 22:47:07;;;;;;;;;;;-4.70;99.90;;;;;;6727303;88;20054;-78
2024/01/10 22:57:07;;;;;;;;;;;-4.70;99.90;;;;;;6722768;88;20104;-78
2024/01/10 23:07:08;;;;;;;;;;;-4.70;99.90;;;;;;6726908;88;20058;-79
2024/01/10 23:17:08;;;;;;;;;;;-4.70;99.90;;;;;;6724824;88;20530;-78
2024/01/10 23:27:09;;;;;;;;;;;-4.90;99.90;;;;;;6720598;88;20061;-78
2024/01/10 23:37:09;;;;;;;;;;;-5.00;99.90;;;;;;6725533;88;20054;-77
2024/01/10 23:47:10;;;;;;;;;;;-5.20;99.90;;;;;;6725230;88;20079;-78
2024/01/10 23:57:11;;;;;;;;;;;-4.90;99.90;;;;;;6735377;88;20030;-77
